Terminal Aerodrome Forecast
Issued by NWS

Home | Current Version | Previous Version | Text Only | Print | Product List | Glossary On
Versions: 1 2 3 4 5 6 7 8 9 10 11 12 13 14 15 16 17 18 19 20 21 22 23 24
000
FTAK31 PAJN 260650 AAA
TAFAYA
TAF AMD
PAYA 260650Z 2607/2706 16005KT 3SM RA BR SCT003 OVC015
      TEMPO 2607/2610 2SM RA BR OVC005
     FM261200 VRB05KT 3SM BR OVC005
     FM262100 VRB05KT P6SM SCT035
      AMD LTD TO CLD VIS AND WIND 2607/2610=

USA.gov is the U.S. government's official web portal to all federal, state and local government web resources and services.